sensor_id;sensor_type;location;lat;lon;timestamp;pressure;altitude;pressure_sealevel;temperature
77385;BMP280;66444;49.680;18.538;2023-07-24T00:04:45;96870.6246512086;;;25.336989548569544
77385;BMP280;66444;49.680;18.538;2023-07-24T00:09:49;96859.43713418205;;;25.316708768391983
77385;BMP280;66444;49.680;18.538;2023-07-24T00:14:53;96861.53578724049;;;25.36741054421291
77385;BMP280;66444;49.680;18.538;2023-07-24T00:19:56;96870.00046802255;;;25.387691091559827
77385;BMP280;66444;49.680;18.538;2023-07-24T00:25:00;96863.6692672976;;;25.326849170122294
77385;BMP280;66444;49.680;18.538;2023-07-24T00:30:05;96851.43266955572;;;25.281217178981752
77385;BMP280;66444;49.680;18.538;2023-07-24T00:35:10;96871.24761733817;;;25.286287423502653
77385;BMP280;66444;49.680;18.538;2023-07-24T00:40:14;96854.9100688644;;;25.286287423502653
77385;BMP280;66444;49.680;18.538;2023-07-24T00:45:18;96865.34256385562;;;25.301498122140764
77385;BMP280;66444;49.680;18.538;2023-07-24T00:50:24;96858.84680542003;;;25.27614692864008
77385;BMP280;66444;49.680;18.538;2023-07-24T00:55:29;96855.0740713907;;;25.250795589620246
77385;BMP280;66444;49.680;18.538;2023-07-24T01:00:33;96842.83812322296;;;25.20516281267628
77385;BMP280;66444;49.680;18.538;2023-07-24T01:05:36;96857.07199673768;;;25.154459174210206
77385;BMP280;66444;49.680;18.538;2023-07-24T01:10:40;96864.02609541563;;;25.16459994846955
77385;BMP280;66444;49.680;18.538;2023-07-24T01:15:48;96872.81216536577;;;25.11389584434219
77385;BMP280;66444;49.680;18.538;2023-07-24T01:20:57;96875.23705021445;;;25.09361403970979
77385;BMP280;66444;49.680;18.538;2023-07-24T01:26:03;96885.52966937672;;;25.05305015104823
77385;BMP280;66444;49.680;18.538;2023-07-24T01:31:14;96870.1125782021;;;25.02262699007988
77385;BMP280;66444;49.680;18.538;2023-07-24T01:36:18;96882.66816454953;;;24.99727419586852
77385;BMP280;66444;49.680;18.538;2023-07-24T01:41:22;96876.4698249514;;;24.992203619563952
77385;BMP280;66444;49.680;18.538;2023-07-24T01:46:27;96879.20792027672;;;24.900932250730694
77385;BMP280;66444;49.680;18.538;2023-07-24T01:51:30;96877.09912771064;;;24.850225119804964
77385;BMP280;66444;49.680;18.538;2023-07-24T01:56:35;96878.0102044268;;;24.81980056185275
77385;BMP280;66444;49.680;18.538;2023-07-24T02:01:44;96885.12532573275;;;24.70317114847712
77385;BMP280;66444;49.680;18.538;2023-07-24T02:06:47;96878.93406422829;;;24.606822788855062
77385;BMP280;66444;49.680;18.538;2023-07-24T02:11:51;96872.88843325828;;;24.383692204253748
77385;BMP280;66444;49.680;18.538;2023-07-24T02:16:55;96872.57766136975;;;24.27212268607691
77385;BMP280;66444;49.680;18.538;2023-07-24T02:21:58;96873.162816991;;;24.13012104295194
77385;BMP280;66444;49.680;18.538;2023-07-24T02:27:02;96865.13747192717;;;24.003330005332828
77385;BMP280;66444;49.680;18.538;2023-07-24T02:32:08;96858.62028848201;;;23.88667903766036
77385;BMP280;66444;49.680;18.538;2023-07-24T02:37:11;96856.02022650988;;;23.759881015121938
77385;BMP280;66444;49.680;18.538;2023-07-24T02:42:14;96850.55959240092;;;23.668584186257796
77385;BMP280;66444;49.680;18.538;2023-07-24T02:47:18;96853.4142638644;;;23.633079354604707
77385;BMP280;66444;49.680;18.538;2023-07-24T02:52:22;96859.73983113328;;;23.602646414749323
77385;BMP280;66444;49.680;18.538;2023-07-24T02:57:26;96861.52666532679;;;23.541779906395824
77385;BMP280;66444;49.680;18.538;2023-07-24T03:02:29;96860.01410034845;;;23.53163540684618
77385;BMP280;66444;49.680;18.538;2023-07-24T03:07:33;96863.93199572056;;;23.521490884013474
77385;BMP280;66444;49.680;18.538;2023-07-24T03:12:36;96859.3940765094;;;23.49105717581697
77385;BMP280;66444;49.680;18.538;2023-07-24T03:17:40;96868.87666270371;;;23.445406220620498
77385;BMP280;66444;49.680;18.538;2023-07-24T03:22:44;96860.28612428553;;;23.460623258072882
77385;BMP280;66444;49.680;18.538;2023-07-24T03:27:48;96865.09447876456;;;23.420044375117868
77385;BMP280;66444;49.680;18.538;2023-07-24T03:32:51;96872.79350474468;;;23.435261499881744
77385;BMP280;66444;49.680;18.538;2023-07-24T03:37:55;96849.38654374694;;;23.36932024755515
77385;BMP280;66444;49.680;18.538;2023-07-24T03:42:58;96847.02127842416;;;23.480912559852005
77385;BMP280;66444;49.680;18.538;2023-07-24T03:48:02;96847.64066170398;;;23.521490884013474
77385;BMP280;66444;49.680;18.538;2023-07-24T03:53:06;96853.0710961997;;;23.521490884013474
77385;BMP280;66444;49.680;18.538;2023-07-24T03:58:09;96861.8364056325;;;23.562068835645913
77385;BMP280;66444;49.680;18.538;2023-07-24T04:03:12;96863.65848911626;;;23.59250205489807
77385;BMP280;66444;49.680;18.538;2023-07-24T04:08:15;96856.43877896664;;;23.653367864759637
77385;BMP280;66444;49.680;18.538;2023-07-24T04:13:18;96860.97559271708;;;23.683800455369056
77385;BMP280;66444;49.680;18.538;2023-07-24T04:18:20;96866.26860436825;;;23.71930487956852
77385;BMP280;66444;49.680;18.538;2023-07-24T04:23:23;96875.95876718064;;;23.820744519960137
77385;BMP280;66444;49.680;18.538;2023-07-24T04:28:26;96869.48757649073;;;23.88667903766036
77385;BMP280;66444;49.680;18.538;2023-07-24T04:33:28;96870.71518997995;;;23.967827862873673
77385;BMP280;66444;49.680;18.538;2023-07-24T04:38:31;96878.86674752731;;;23.967827862873673
77385;BMP280;66444;49.680;18.538;2023-07-24T04:43:34;96872.53354993313;;;23.998258288158105
77385;BMP280;66444;49.680;18.538;2023-07-24T04:48:36;96874.2078943394;;;24.064190157409758
77385;BMP280;66444;49.680;18.538;2023-07-24T04:53:40;96882.82824965626;;;24.140264168800787
77385;BMP280;66444;49.680;18.538;2023-07-24T04:58:43;96883.59823842537;;;24.236622703121974
77385;BMP280;66444;49.680;18.538;2023-07-24T05:03:46;96884.37124573857;;;24.424262239644303
77385;BMP280;66444;49.680;18.538;2023-07-24T05:08:48;96876.06440833105;;;24.551041199173778
77385;BMP280;66444;49.680;18.538;2023-07-24T05:13:51;96869.10329677351;;;24.723454745905475
77385;BMP280;66444;49.680;18.538;2023-07-24T05:18:54;96851.99545831866;;;24.900932250730694
77385;BMP280;66444;49.680;18.538;2023-07-24T05:23:57;96866.01876658412;;;25.06826165295206
77385;BMP280;66444;49.680;18.538;2023-07-24T05:28:59;96856.12393016677;;;25.27614692864008
77385;BMP280;66444;49.680;18.538;2023-07-24T05:34:02;96861.16390958097;;;25.529652315285055
77385;BMP280;66444;49.680;18.538;2023-07-24T05:39:11;96864.13681256687;;;25.6411900753621
77385;BMP280;66444;49.680;18.538;2023-07-24T05:44:14;96874.18412518183;;;25.81863070563413
77385;BMP280;66444;49.680;18.538;2023-07-24T05:49:17;96882.77076657474;;;25.894674507249146
77385;BMP280;66444;49.680;18.538;2023-07-24T05:54:20;96883.64288750295;;;25.95550860557705
77385;BMP280;66444;49.680;18.538;2023-07-24T05:59:22;96883.29545731134;;;26.026480660913514
77385;BMP280;66444;49.680;18.538;2023-07-24T06:04:25;96881.43789037764;;;26.087312943162395
77385;BMP280;66444;49.680;18.538;2023-07-24T06:09:28;96872.3286734251;;;26.11772876996547
77385;BMP280;66444;49.680;18.538;2023-07-24T06:14:31;96870.17910556009;;;26.15828287974
77385;BMP280;66444;49.680;18.538;2023-07-24T06:19:34;96866.45171030328;;;26.279942973889412
77385;BMP280;66444;49.680;18.538;2023-07-24T06:24:37;96860.63699760339;;;26.350909813819452
77385;BMP280;66444;49.680;18.538;2023-07-24T06:29:40;96869.13316657064;;;26.51818427965045
77385;BMP280;66444;49.680;18.538;2023-07-24T06:34:43;96860.87460990185;;;26.756412727339193
77385;BMP280;66444;49.680;18.538;2023-07-24T06:39:46;96862.35260006337;;;27.207490943558515
77385;BMP280;66444;49.680;18.538;2023-07-24T06:44:49;96857.6425965607;;;27.2125589761883
77385;BMP280;66444;49.680;18.538;2023-07-24T06:49:52;96854.91127145564;;;27.2125589761883
77385;BMP280;66444;49.680;18.538;2023-07-24T06:54:54;96853.85065637511;;;27.334190013073385
77385;BMP280;66444;49.680;18.538;2023-07-24T06:59:58;96848.70010163795;;;27.55717153949663
77385;BMP280;66444;49.680;18.538;2023-07-24T07:05:03;96829.17142972146;;;27.830815283814445
77385;BMP280;66444;49.680;18.538;2023-07-24T07:10:07;96834.09274917602;;;27.790276540862397
77385;BMP280;66444;49.680;18.538;2023-07-24T07:15:10;96834.90748535449;;;27.648388006864117
77385;BMP280;66444;49.680;18.538;2023-07-24T07:20:13;96838.86985365389;;;27.638252936955542
77385;BMP280;66444;49.680;18.538;2023-07-24T07:25:16;96844.48003819949;;;27.74973742538132
77385;BMP280;66444;49.680;18.538;2023-07-24T07:30:19;96838.60376576717;;;27.82068063300103
77385;BMP280;66444;49.680;18.538;2023-07-24T07:35:22;96838.67143976453;;;27.876420924346895
77385;BMP280;66444;49.680;18.538;2023-07-24T07:40:25;96826.77614572142;;;27.906824422767386
77385;BMP280;66444;49.680;18.538;2023-07-24T07:45:28;96827.79998962831;;;27.93216051138006
77385;BMP280;66444;49.680;18.538;2023-07-24T07:50:31;96826.7557440466;;;28.109509057132527
77385;BMP280;66444;49.680;18.538;2023-07-24T07:55:34;96821.99643646687;;;28.3172511419747
77385;BMP280;66444;49.680;18.538;2023-07-24T08:00:39;96816.8718739032;;;28.70737446732819
77385;BMP280;66444;49.680;18.538;2023-07-24T08:05:41;96812.1469653383;;;28.712440777011217
77385;BMP280;66444;49.680;18.538;2023-07-24T08:10:49;96807.01797168372;;;28.53004996133968
77385;BMP280;66444;49.680;18.538;2023-07-24T08:15:52;96813.46042758698;;;28.499650758644567
77385;BMP280;66444;49.680;18.538;2023-07-24T08:20:56;96811.8562561867;;;28.378051852388307
77385;BMP280;66444;49.680;18.538;2023-07-24T08:25:59;96806.38351512906;;;28.378051852388307
77385;BMP280;66444;49.680;18.538;2023-07-24T08:31:02;96800.21071645597;;;28.42871847078204
77385;BMP280;66444;49.680;18.538;2023-07-24T08:36:06;96820.58035816191;;;28.676976486993954
77385;BMP280;66444;49.680;18.538;2023-07-24T08:41:11;96796.85623946754;;;28.90495623177849
77385;BMP280;66444;49.680;18.538;2023-07-24T08:46:16;96783.62135445527;;;29.25956796174869
77385;BMP280;66444;49.680;18.538;2023-07-24T08:51:20;96783.76877370017;;;29.593890040693804
77385;BMP280;66444;49.680;18.538;2023-07-24T08:56:23;96791.53998245382;;;29.72052057068795
77385;BMP280;66444;49.680;18.538;2023-07-24T09:01:26;96782.36906139774;;;29.918056933162735
77385;BMP280;66444;49.680;18.538;2023-07-24T09:06:29;96783.90637171999;;;30.151037160586565
77385;BMP280;66444;49.680;18.538;2023-07-24T09:11:32;96774.68417860846;;;30.237135431962088
77385;BMP280;66444;49.680;18.538;2023-07-24T09:17:05;96772.94326410544;;;30.373876287788153
77385;BMP280;66444;49.680;18.538;2023-07-24T09:22:09;96774.44068020069;;;30.38400507126935
77385;BMP280;66444;49.680;18.538;2023-07-24T09:27:13;96770.44531991359;;;30.282716188719498
77385;BMP280;66444;49.680;18.538;2023-07-24T09:32:20;96758.9661780429;;;30.24219998377375
77385;BMP280;66444;49.680;18.538;2023-07-24T09:37:25;96738.5058911245;;;30.363747481023893
77385;BMP280;66444;49.680;18.538;2023-07-24T09:42:30;96728.97849774719;;;30.70811384920962
77385;BMP280;66444;49.680;18.538;2023-07-24T09:47:34;96725.93083242814;;;30.91066972822882
77385;BMP280;66444;49.680;18.538;2023-07-24T09:52:37;96716.39860498847;;;31.032198785291985
77385;BMP280;66444;49.680;18.538;2023-07-24T09:57:43;96723.87430142656;;;31.0828349028714
77385;BMP280;66444;49.680;18.538;2023-07-24T10:02:47;96696.3437067226;;;31.19423231263645
77385;BMP280;66444;49.680;18.538;2023-07-24T10:07:51;96699.86483493554;;;31.143597475625576
77385;BMP280;66444;49.680;18.538;2023-07-24T10:12:55;96671.09912839037;;;31.209422650234774
77385;BMP280;66444;49.680;18.538;2023-07-24T10:18:02;96678.64229027645;;;31.55878595621325
77385;BMP280;66444;49.680;18.538;2023-07-24T10:23:06;96680.44706726697;;;31.83218138664961
77385;BMP280;66444;49.680;18.538;2023-07-24T10:28:11;96676.0189105567;;;32.044810542324555
77385;BMP280;66444;49.680;18.538;2023-07-24T10:33:17;96676.0189105567;;;32.044810542324555
77385;BMP280;66444;49.680;18.538;2023-07-24T10:38:31;96664.68533936839;;;31.837244104919954
77385;BMP280;66444;49.680;18.538;2023-07-24T10:43:43;96657.69010895897;;;31.827118662558497
77385;BMP280;66444;49.680;18.538;2023-07-24T10:48:48;96662.48954091885;;;32.06506040259264
77385;BMP280;66444;49.680;18.538;2023-07-24T10:53:53;96644.89271099222;;;32.151121269725266
77385;BMP280;66444;49.680;18.538;2023-07-24T10:58:56;96638.86931859468;;;32.40929377791472
77385;BMP280;66444;49.680;18.538;2023-07-24T11:04:04;96632.32652426284;;;32.4396660188213
77385;BMP280;66444;49.680;18.538;2023-07-24T11:09:07;96619.62461666869;;;32.59658592529595
77385;BMP280;66444;49.680;18.538;2023-07-24T11:14:13;96613.45705564843;;;32.72313016243279
77385;BMP280;66444;49.680;18.538;2023-07-24T11:19:22;96613.08880233146;;;32.81423976053484
77385;BMP280;66444;49.680;18.538;2023-07-24T11:24:25;96611.9468559492;;;32.52571956343017
77385;BMP280;66444;49.680;18.538;2023-07-24T11:29:30;96604.2295589868;;;32.267553882999344
77385;BMP280;66444;49.680;18.538;2023-07-24T11:34:33;96595.390345912;;;32.33842440089211
77385;BMP280;66444;49.680;18.538;2023-07-24T11:39:37;96589.55101783267;;;32.186557608423755
77385;BMP280;66444;49.680;18.538;2023-07-24T11:44:40;96576.29560370179;;;32.60164776463061
77385;BMP280;66444;49.680;18.538;2023-07-24T11:49:43;96591.057519223;;;33.32036985191517
77385;BMP280;66444;49.680;18.538;2023-07-24T11:54:47;96565.09455037506;;;33.40640617869794
77385;BMP280;66444;49.680;18.538;2023-07-24T11:59:59;96545.22434644583;;;32.971146314172074
77385;BMP280;66444;49.680;18.538;2023-07-24T12:05:04;96532.573903074;;;32.885101477429274
77385;BMP280;66444;49.680;18.538;2023-07-24T12:10:08;96522.03961206773;;;33.057189468713474
77385;BMP280;66444;49.680;18.538;2023-07-24T12:15:11;96518.11013190236;;;33.46207584668882
77385;BMP280;66444;49.680;18.538;2023-07-24T12:20:15;96501.04629136417;;;33.87198535008356
77385;BMP280;66444;49.680;18.538;2023-07-24T12:25:19;96497.75452267905;;;33.887166450126095
77385;BMP280;66444;49.680;18.538;2023-07-24T12:30:23;96480.73844856067;;;34.109816565411165
77385;BMP280;66444;49.680;18.538;2023-07-24T12:35:26;96455.81403577901;;;34.37293399120681
77385;BMP280;66444;49.680;18.538;2023-07-24T12:40:29;96465.83126399307;;;34.271736843930555
77385;BMP280;66444;49.680;18.538;2023-07-24T12:45:33;96445.70527414825;;;34.059215256012976
77385;BMP280;66444;49.680;18.538;2023-07-24T12:50:36;96425.99110899551;;;33.887166450126095
77385;BMP280;66444;49.680;18.538;2023-07-24T12:55:39;96409.60733121748;;;34.03897456927225
77385;BMP280;66444;49.680;18.538;2023-07-24T13:00:43;96416.19825778343;;;34.00861336453818
77385;BMP280;66444;49.680;18.538;2023-07-24T13:05:46;96414.38685883547;;;34.03391438303515
77385;BMP280;66444;49.680;18.538;2023-07-24T13:10:50;96411.58786366215;;;34.16547733345069
77385;BMP280;66444;49.680;18.538;2023-07-24T13:15:54;96407.65259373296;;;34.66639255173504
77385;BMP280;66444;49.680;18.538;2023-07-24T13:20:57;96403.25430173951;;;36.072697937069464
77385;BMP280;66444;49.680;18.538;2023-07-24T13:26:01;96380.37161779222;;;36.902105973521245
77385;BMP280;66444;49.680;18.538;2023-07-24T13:31:12;96379.2862747045;;;36.3255828300491
77385;BMP280;66444;49.680;18.538;2023-07-24T13:36:18;96367.23447977898;;;35.9968296315521
77385;BMP280;66444;49.680;18.538;2023-07-24T13:41:21;96356.35849199773;;;36.09292926401831
77385;BMP280;66444;49.680;18.538;2023-07-24T13:46:25;96345.55517450013;;;37.119546809466556
77385;BMP280;66444;49.680;18.538;2023-07-24T13:51:28;96339.23924419831;;;37.913367312820625
77385;BMP280;66444;49.680;18.538;2023-07-24T13:56:31;96336.94160468328;;;38.46946180537343
77385;BMP280;66444;49.680;18.538;2023-07-24T14:01:34;96327.43260960761;;;38.32791716223583
77385;BMP280;66444;49.680;18.538;2023-07-24T14:06:38;96324.85896893835;;;38.86374067678116
77385;BMP280;66444;49.680;18.538;2023-07-24T14:11:41;96307.92337187802;;;38.57561729294248
77385;BMP280;66444;49.680;18.538;2023-07-24T14:16:45;96296.96519484677;;;38.76770165013149
77385;BMP280;66444;49.680;18.538;2023-07-24T14:21:48;96312.0867122576;;;38.48968209614977
77385;BMP280;66444;49.680;18.538;2023-07-24T14:26:51;96315.53501988805;;;38.742427872819825
77385;BMP280;66444;49.680;18.538;2023-07-24T14:31:54;96308.140975511;;;39.83917591888458
77385;BMP280;66444;49.680;18.538;2023-07-24T14:36:58;96299.45148349613;;;39.167008018353954
77385;BMP280;66444;49.680;18.538;2023-07-24T14:42:01;96291.93891658774;;;38.23692176756449
77385;BMP280;66444;49.680;18.538;2023-07-24T14:47:04;96280.36272055315;;;38.69187988163903
77385;BMP280;66444;49.680;18.538;2023-07-24T14:52:08;96259.56774712488;;;38.87384992577135
77385;BMP280;66444;49.680;18.538;2023-07-24T14:57:16;96234.86330027008;;;38.05492532043718
77385;BMP280;66444;49.680;18.538;2023-07-24T15:02:19;96221.20059299776;;;37.256073926761744
77385;BMP280;66444;49.680;18.538;2023-07-24T15:07:23;96206.71436187049;;;38.87384992577135
77385;BMP280;66444;49.680;18.538;2023-07-24T15:12:31;96225.14334432645;;;39.82401537196711
77385;BMP280;66444;49.680;18.538;2023-07-24T15:17:34;96209.57084796943;;;39.69767544372007
77385;BMP280;66444;49.680;18.538;2023-07-24T15:22:37;96219.21399553806;;;39.59154709256254
77385;BMP280;66444;49.680;18.538;2023-07-24T15:27:41;96233.45778837612;;;37.96897993148305
77385;BMP280;66444;49.680;18.538;2023-07-24T15:32:44;96233.88975480711;;;36.48742152471095
77385;BMP280;66444;49.680;18.538;2023-07-24T15:37:47;96218.85450898725;;;35.15207403860986
77385;BMP280;66444;49.680;18.538;2023-07-24T15:42:51;96228.32461119434;;;34.271736843930555
77385;BMP280;66444;49.680;18.538;2023-07-24T15:47:54;96290.0367189028;;;33.41146708671003
77385;BMP280;66444;49.680;18.538;2023-07-24T15:52:57;96321.63534291812;;;30.870159297483042
77385;BMP280;66444;49.680;18.538;2023-07-24T15:58:01;96344.74803630146;;;29.10759499850683
77385;BMP280;66444;49.680;18.538;2023-07-24T16:03:04;96339.38013354849;;;27.957496454473585
77385;BMP280;66444;49.680;18.538;2023-07-24T16:08:07;96328.09370501444;;;26.918603461934254
77385;BMP280;66444;49.680;18.538;2023-07-24T16:13:10;96316.30688627338;;;26.026480660913514
77385;BMP280;66444;49.680;18.538;2023-07-24T16:18:14;96324.34013030931;;;25.71216718312353
77385;BMP280;66444;49.680;18.538;2023-07-24T16:23:17;96295.45426268665;;;25.590491442754864
77385;BMP280;66444;49.680;18.538;2023-07-24T16:28:21;96273.71879729658;;;25.443462116550656
77385;BMP280;66444;49.680;18.538;2023-07-24T16:33:25;96271.04123629273;;;25.29642789508216
77385;BMP280;66444;49.680;18.538;2023-07-24T16:38:28;96265.71461434635;;;25.20516281267628
77385;BMP280;66444;49.680;18.538;2023-07-24T16:43:31;96257.94136209277;;;25.134177555842324
77385;BMP280;66444;49.680;18.538;2023-07-24T16:48:35;96309.39084809247;;;24.96685065072961
77385;BMP280;66444;49.680;18.538;2023-07-24T16:52:15;96381.29525191415;;;24.515543457213788
77385;BMP280;66444;49.680;18.538;2023-07-24T16:57:16;96580.24770068914;;;22.709853620268404
77385;BMP280;66444;49.680;18.538;2023-07-24T17:02:17;96571.07055303793;;;20.938952835369854
77385;BMP280;66444;49.680;18.538;2023-07-24T17:07:19;96560.91654011555;;;20.34511108431034
77385;BMP280;66444;49.680;18.538;2023-07-24T17:12:20;96550.80386813503;;;19.96947773033753
77385;BMP280;66444;49.680;18.538;2023-07-24T17:17:21;96514.26749616927;;;19.796878745639695
77385;BMP280;66444;49.680;18.538;2023-07-24T17:22:23;96486.42378786734;;;19.82733787894249
77385;BMP280;66444;49.680;18.538;2023-07-24T17:27:24;96333.34376881957;;;19.95932503514923
77385;BMP280;66444;49.680;18.538;2023-07-24T17:32:26;96255.15347315744;;;20.050698453653602
77385;BMP280;66444;49.680;18.538;2023-07-24T17:37:27;96275.00758915434;;;20.111613018251955
77385;BMP280;66444;49.680;18.538;2023-07-24T17:42:28;96260.3177170706;;;20.12176536419429
77385;BMP280;66444;49.680;18.538;2023-07-24T17:47:29;96254.6803120757;;;20.19283113386482
77385;BMP280;66444;49.680;18.538;2023-07-24T17:52:36;96222.91109676051;;;20.233439632877708
77385;BMP280;66444;49.680;18.538;2023-07-24T17:57:37;96238.47936782945;;;20.19283113386482
77385;BMP280;66444;49.680;18.538;2023-07-24T18:02:39;96235.93856048066;;;20.030393412522972
77385;BMP280;66444;49.680;18.538;2023-07-24T18:07:41;96248.56382723004;;;20.060850939294323
77385;BMP280;66444;49.680;18.538;2023-07-24T18:12:42;96292.71623023563;;;20.12176536419429
77385;BMP280;66444;49.680;18.538;2023-07-24T18:17:43;96287.08247240666;;;20.19283113386482
77385;BMP280;66444;49.680;18.538;2023-07-24T18:22:44;96304.67638549092;;;20.23851566906087
77385;BMP280;66444;49.680;18.538;2023-07-24T18:27:45;96298.28468098887;;;20.30450360975228
77385;BMP280;66444;49.680;18.538;2023-07-24T18:32:47;96262.97901090312;;;20.2486677239649
77385;BMP280;66444;49.680;18.538;2023-07-24T18:37:48;96251.18118534735;;;20.314655513316392
77385;BMP280;66444;49.680;18.538;2023-07-24T18:42:50;96472.86287311444;;;20.24359169942327
77385;BMP280;66444;49.680;18.538;2023-07-24T18:47:51;96427.8180921683;;;19.95932503514923
77385;BMP280;66444;49.680;18.538;2023-07-24T18:52:52;96446.3875239186;;;19.939019574923442
77385;BMP280;66444;49.680;18.538;2023-07-24T18:57:54;96333.34376881957;;;19.95932503514923
77385;BMP280;66444;49.680;18.538;2023-07-24T19:02:55;96302.57629868951;;;19.933943195315077
77385;BMP280;66444;49.680;18.538;2023-07-24T19:07:56;96335.70705991553;;;20.065927173383535
77385;BMP280;66444;49.680;18.538;2023-07-24T19:12:58;96412.27110948104;;;19.99993567620404
77385;BMP280;66444;49.680;18.538;2023-07-24T19:17:59;96209.73634539834;;;19.90856120996177
77385;BMP280;66444;49.680;18.538;2023-07-24T19:23:01;96242.4425065614;;;19.92886680988595
77385;BMP280;66444;49.680;18.538;2023-07-24T19:28:02;96232.95265914488;;;19.883179079089313
77385;BMP280;66444;49.680;18.538;2023-07-24T19:33:04;96234.27983213856;;;19.71057672998868
77385;BMP280;66444;49.680;18.538;2023-07-24T19:38:05;96207.9617595911;;;19.624273032136262
77385;BMP280;66444;49.680;18.538;2023-07-24T19:43:07;96201.05742817912;;;19.614119545323774
77385;BMP280;66444;49.680;18.538;2023-07-24T19:48:08;96198.03936630524;;;19.593812501849605
77385;BMP280;66444;49.680;18.538;2023-07-24T19:53:09;96201.6980710385;;;19.654733352875336
77385;BMP280;66444;49.680;18.538;2023-07-24T19:58:11;96192.00331634391;;;19.5531981355045
77385;BMP280;66444;49.680;18.538;2023-07-24T20:03:13;96206.67803598395;;;19.54304448571056
77385;BMP280;66444;49.680;18.538;2023-07-24T20:08:15;96207.9617595911;;;19.624273032136262
77385;BMP280;66444;49.680;18.538;2023-07-24T20:13:17;96210.11176121463;;;19.675040116952733
77385;BMP280;66444;49.680;18.538;2023-07-24T20:18:19;96216.90265593884;;;19.720729995612054
77385;BMP280;66444;49.680;18.538;2023-07-24T20:23:26;96226.94033894816;;;19.71565336571075
77385;BMP280;66444;49.680;18.538;2023-07-24T20:28:28;96229.31773907578;;;19.69534678789787
77385;BMP280;66444;49.680;18.538;2023-07-24T20:33:35;96248.41224082874;;;19.751189652783797
77385;BMP280;66444;49.680;18.538;2023-07-24T20:38:42;96226.59691872509;;;19.82226137127727
77385;BMP280;66444;49.680;18.538;2023-07-24T20:43:44;96242.55826557908;;;19.893331948900595
77385;BMP280;66444;49.680;18.538;2023-07-24T20:48:51;96247.20132447452;;;19.88825551690534
77385;BMP280;66444;49.680;18.538;2023-07-24T20:53:53;96261.33560433854;;;19.92886680988595
77385;BMP280;66444;49.680;18.538;2023-07-24T20:59:00;96259.50615520244;;;19.898408375075086
77385;BMP280;66444;49.680;18.538;2023-07-24T21:04:01;96240.5241134164;;;19.807031813357025
77385;BMP280;66444;49.680;18.538;2023-07-24T21:09:04;96219.97864776489;;;19.95932503514923
77385;BMP280;66444;49.680;18.538;2023-07-24T21:14:05;96219.34177770655;;;19.918714021565393
77385;BMP280;66444;49.680;18.538;2023-07-24T21:19:07;96223.23080863632;;;19.90856120996177
77385;BMP280;66444;49.680;18.538;2023-07-24T21:24:09;96224.10181553119;;;19.878102635452525
77385;BMP280;66444;49.680;18.538;2023-07-24T21:29:11;96224.01357415102;;;19.786725654639305
77385;BMP280;66444;49.680;18.538;2023-07-24T21:34:13;96223.80800868783;;;19.730883237952366
77385;BMP280;66444;49.680;18.538;2023-07-24T21:39:15;96224.03501806964;;;19.659810052625836
77385;BMP280;66444;49.680;18.538;2023-07-24T21:44:17;96220.80759399173;;;19.583658945187928
77385;BMP280;66444;49.680;18.538;2023-07-24T21:49:19;96235.38107221159;;;19.482122098002584
77385;BMP280;66444;49.680;18.538;2023-07-24T21:54:22;96226.96742425901;;;19.46181444916874
77385;BMP280;66444;49.680;18.538;2023-07-24T21:59:24;96236.56821805205;;;19.471968285227195